sensor_id;sensor_type;location;lat;lon;timestamp;temperature;humidity
25582;DHT22;13462;50.764;4.332;2023-08-31T00:00:09;12.00;99.90
25582;DHT22;13462;50.764;4.332;2023-08-31T00:02:36;12.00;99.90
25582;DHT22;13462;50.764;4.332;2023-08-31T00:05:02;12.00;99.90
25582;DHT22;13462;50.764;4.332;2023-08-31T00:07:29;12.10;99.90
25582;DHT22;13462;50.764;4.332;2023-08-31T00:09:54;12.10;99.90
25582;DHT22;13462;50.764;4.332;2023-08-31T00:12:20;12.10;99.90
25582;DHT22;13462;50.764;4.332;2023-08-31T00:14:49;12.20;99.90
25582;DHT22;13462;50.764;4.332;2023-08-31T00:17:14;12.30;99.90
25582;DHT22;13462;50.764;4.332;2023-08-31T00:19:40;12.30;99.90
25582;DHT22;13462;50.764;4.332;2023-08-31T00:22:06;12.30;99.90
25582;DHT22;13462;50.764;4.332;2023-08-31T00:24:31;12.30;99.90
25582;DHT22;13462;50.764;4.332;2023-08-31T00:26:57;12.30;99.90
25582;DHT22;13462;50.764;4.332;2023-08-31T00:29:23;12.40;99.90
25582;DHT22;13462;50.764;4.332;2023-08-31T00:31:51;12.40;99.90
25582;DHT22;13462;50.764;4.332;2023-08-31T00:34:19;12.50;99.90
25582;DHT22;13462;50.764;4.332;2023-08-31T00:36:44;12.50;99.90
25582;DHT22;13462;50.764;4.332;2023-08-31T00:39:10;12.60;99.90
25582;DHT22;13462;50.764;4.332;2023-08-31T00:41:36;12.50;99.90
25582;DHT22;13462;50.764;4.332;2023-08-31T00:44:02;12.60;99.90
25582;DHT22;13462;50.764;4.332;2023-08-31T00:46:33;12.70;99.90
25582;DHT22;13462;50.764;4.332;2023-08-31T00:49:00;12.70;99.90
25582;DHT22;13462;50.764;4.332;2023-08-31T00:51:25;12.70;99.90
25582;DHT22;13462;50.764;4.332;2023-08-31T00:53:52;12.70;99.90
25582;DHT22;13462;50.764;4.332;2023-08-31T00:56:20;12.70;99.90
25582;DHT22;13462;50.764;4.332;2023-08-31T00:58:46;12.70;99.90
25582;DHT22;13462;50.764;4.332;2023-08-31T01:01:27;12.70;99.90
25582;DHT22;13462;50.764;4.332;2023-08-31T01:04:12;12.70;99.90
25582;DHT22;13462;50.764;4.332;2023-08-31T01:12:29;12.70;99.90
25582;DHT22;13462;50.764;4.332;2023-08-31T01:15:03;12.70;99.90
25582;DHT22;13462;50.764;4.332;2023-08-31T01:17:40;12.80;99.90
25582;DHT22;13462;50.764;4.332;2023-08-31T01:20:09;12.80;99.90
25582;DHT22;13462;50.764;4.332;2023-08-31T01:22:58;12.80;99.90
25582;DHT22;13462;50.764;4.332;2023-08-31T01:25:26;12.70;99.90
25582;DHT22;13462;50.764;4.332;2023-08-31T01:27:52;12.70;99.90
25582;DHT22;13462;50.764;4.332;2023-08-31T01:30:18;12.50;99.90
25582;DHT22;13462;50.764;4.332;2023-08-31T01:32:44;12.50;99.90
25582;DHT22;13462;50.764;4.332;2023-08-31T01:35:16;12.50;99.90
25582;DHT22;13462;50.764;4.332;2023-08-31T01:37:58;12.50;99.90
25582;DHT22;13462;50.764;4.332;2023-08-31T01:40:31;12.50;99.90
25582;DHT22;13462;50.764;4.332;2023-08-31T01:43:01;12.50;99.90
25582;DHT22;13462;50.764;4.332;2023-08-31T01:45:29;12.50;99.90
25582;DHT22;13462;50.764;4.332;2023-08-31T01:47:55;12.60;99.90
25582;DHT22;13462;50.764;4.332;2023-08-31T01:50:23;12.60;99.90
25582;DHT22;13462;50.764;4.332;2023-08-31T01:52:48;12.50;99.90
25582;DHT22;13462;50.764;4.332;2023-08-31T01:55:14;12.50;99.90
25582;DHT22;13462;50.764;4.332;2023-08-31T01:57:41;12.50;99.90
25582;DHT22;13462;50.764;4.332;2023-08-31T02:00:10;12.50;99.90
25582;DHT22;13462;50.764;4.332;2023-08-31T02:02:36;12.50;99.90
25582;DHT22;13462;50.764;4.332;2023-08-31T02:05:02;12.50;99.90
25582;DHT22;13462;50.764;4.332;2023-08-31T02:07:30;12.50;99.90
25582;DHT22;13462;50.764;4.332;2023-08-31T02:09:55;12.50;99.90
25582;DHT22;13462;50.764;4.332;2023-08-31T02:12:21;12.50;99.90
25582;DHT22;13462;50.764;4.332;2023-08-31T02:14:47;12.50;99.90
25582;DHT22;13462;50.764;4.332;2023-08-31T02:17:13;12.60;99.90
25582;DHT22;13462;50.764;4.332;2023-08-31T02:19:38;12.60;99.90
25582;DHT22;13462;50.764;4.332;2023-08-31T02:22:04;12.60;99.90
25582;DHT22;13462;50.764;4.332;2023-08-31T02:24:29;12.50;99.90
25582;DHT22;13462;50.764;4.332;2023-08-31T02:26:56;12.50;99.90
25582;DHT22;13462;50.764;4.332;2023-08-31T02:29:22;12.50;99.90
25582;DHT22;13462;50.764;4.332;2023-08-31T02:31:48;12.50;99.90
25582;DHT22;13462;50.764;4.332;2023-08-31T02:34:13;12.60;99.90
25582;DHT22;13462;50.764;4.332;2023-08-31T02:36:39;12.70;99.90
25582;DHT22;13462;50.764;4.332;2023-08-31T02:39:05;12.70;99.90
25582;DHT22;13462;50.764;4.332;2023-08-31T02:41:31;12.80;99.90
25582;DHT22;13462;50.764;4.332;2023-08-31T02:43:57;12.80;99.90
25582;DHT22;13462;50.764;4.332;2023-08-31T02:46:23;12.80;99.90
25582;DHT22;13462;50.764;4.332;2023-08-31T02:48:49;12.80;99.90
25582;DHT22;13462;50.764;4.332;2023-08-31T02:51:15;12.70;99.90
25582;DHT22;13462;50.764;4.332;2023-08-31T02:53:40;12.80;99.90
25582;DHT22;13462;50.764;4.332;2023-08-31T02:56:06;12.70;99.90
25582;DHT22;13462;50.764;4.332;2023-08-31T02:58:32;12.70;99.90
25582;DHT22;13462;50.764;4.332;2023-08-31T03:01:08;12.60;99.90
25582;DHT22;13462;50.764;4.332;2023-08-31T03:03:37;12.60;99.90
25582;DHT22;13462;50.764;4.332;2023-08-31T03:06:02;12.60;99.90
25582;DHT22;13462;50.764;4.332;2023-08-31T03:08:28;12.50;99.90
25582;DHT22;13462;50.764;4.332;2023-08-31T03:10:56;12.50;99.90
25582;DHT22;13462;50.764;4.332;2023-08-31T03:13:22;12.50;99.90
25582;DHT22;13462;50.764;4.332;2023-08-31T03:15:48;12.50;99.90
25582;DHT22;13462;50.764;4.332;2023-08-31T03:18:13;12.40;99.90
25582;DHT22;13462;50.764;4.332;2023-08-31T03:20:39;12.50;99.90
25582;DHT22;13462;50.764;4.332;2023-08-31T03:23:04;12.40;99.90
25582;DHT22;13462;50.764;4.332;2023-08-31T03:25:30;12.40;99.90
25582;DHT22;13462;50.764;4.332;2023-08-31T03:27:56;12.50;99.90
25582;DHT22;13462;50.764;4.332;2023-08-31T03:30:21;12.40;99.90
25582;DHT22;13462;50.764;4.332;2023-08-31T03:32:47;12.40;99.90
25582;DHT22;13462;50.764;4.332;2023-08-31T03:35:13;12.40;99.90
25582;DHT22;13462;50.764;4.332;2023-08-31T03:37:38;12.50;99.90
25582;DHT22;13462;50.764;4.332;2023-08-31T03:40:04;12.50;99.90
25582;DHT22;13462;50.764;4.332;2023-08-31T03:42:32;12.60;99.90
25582;DHT22;13462;50.764;4.332;2023-08-31T03:44:59;12.50;99.90
25582;DHT22;13462;50.764;4.332;2023-08-31T03:47:24;12.50;99.90
25582;DHT22;13462;50.764;4.332;2023-08-31T03:49:50;12.50;99.90
25582;DHT22;13462;50.764;4.332;2023-08-31T03:52:16;12.40;99.90
25582;DHT22;13462;50.764;4.332;2023-08-31T03:54:41;12.40;99.90
25582;DHT22;13462;50.764;4.332;2023-08-31T03:57:07;12.40;99.90
25582;DHT22;13462;50.764;4.332;2023-08-31T03:59:32;12.30;99.90
25582;DHT22;13462;50.764;4.332;2023-08-31T04:01:58;12.30;99.90
25582;DHT22;13462;50.764;4.332;2023-08-31T04:04:24;12.30;99.90
25582;DHT22;13462;50.764;4.332;2023-08-31T04:06:50;12.20;99.90
25582;DHT22;13462;50.764;4.332;2023-08-31T04:09:16;12.20;99.90
25582;DHT22;13462;50.764;4.332;2023-08-31T04:11:41;12.20;99.90
25582;DHT22;13462;50.764;4.332;2023-08-31T04:14:07;12.20;99.90
25582;DHT22;13462;50.764;4.332;2023-08-31T04:16:32;12.10;99.90
25582;DHT22;13462;50.764;4.332;2023-08-31T04:18:58;12.10;99.90
25582;DHT22;13462;50.764;4.332;2023-08-31T04:21:24;12.10;99.90
25582;DHT22;13462;50.764;4.332;2023-08-31T04:23:49;12.10;99.90
25582;DHT22;13462;50.764;4.332;2023-08-31T04:26:15;12.10;99.90
25582;DHT22;13462;50.764;4.332;2023-08-31T04:28:42;12.10;99.90
25582;DHT22;13462;50.764;4.332;2023-08-31T04:31:08;12.10;99.90
25582;DHT22;13462;50.764;4.332;2023-08-31T04:33:38;12.10;99.90
25582;DHT22;13462;50.764;4.332;2023-08-31T04:36:04;12.20;99.90
25582;DHT22;13462;50.764;4.332;2023-08-31T04:38:31;12.10;99.90
25582;DHT22;13462;50.764;4.332;2023-08-31T04:41:00;12.00;99.90
25582;DHT22;13462;50.764;4.332;2023-08-31T04:43:26;12.00;99.90
25582;DHT22;13462;50.764;4.332;2023-08-31T04:45:53;12.10;99.90
25582;DHT22;13462;50.764;4.332;2023-08-31T04:48:18;12.10;99.90
25582;DHT22;13462;50.764;4.332;2023-08-31T04:50:44;12.10;99.90
25582;DHT22;13462;50.764;4.332;2023-08-31T04:53:10;12.10;99.90
25582;DHT22;13462;50.764;4.332;2023-08-31T04:55:35;12.10;99.90
25582;DHT22;13462;50.764;4.332;2023-08-31T04:58:01;12.20;99.90
25582;DHT22;13462;50.764;4.332;2023-08-31T05:00:26;12.10;99.90
25582;DHT22;13462;50.764;4.332;2023-08-31T05:02:52;12.00;99.90
25582;DHT22;13462;50.764;4.332;2023-08-31T05:05:18;12.00;99.90
25582;DHT22;13462;50.764;4.332;2023-08-31T05:07:44;12.10;99.90
25582;DHT22;13462;50.764;4.332;2023-08-31T05:10:10;12.10;99.90
25582;DHT22;13462;50.764;4.332;2023-08-31T05:12:36;12.10;99.90
25582;DHT22;13462;50.764;4.332;2023-08-31T05:15:01;12.10;99.90
25582;DHT22;13462;50.764;4.332;2023-08-31T05:17:28;12.10;99.90
25582;DHT22;13462;50.764;4.332;2023-08-31T05:19:54;12.20;99.90
25582;DHT22;13462;50.764;4.332;2023-08-31T05:22:19;12.20;99.90
25582;DHT22;13462;50.764;4.332;2023-08-31T05:24:45;12.30;99.90
25582;DHT22;13462;50.764;4.332;2023-08-31T05:27:10;12.30;99.90
25582;DHT22;13462;50.764;4.332;2023-08-31T05:29:36;12.30;99.90
25582;DHT22;13462;50.764;4.332;2023-08-31T05:32:02;12.30;99.90
25582;DHT22;13462;50.764;4.332;2023-08-31T05:34:27;12.30;99.90
25582;DHT22;13462;50.764;4.332;2023-08-31T05:36:54;12.20;99.90
25582;DHT22;13462;50.764;4.332;2023-08-31T05:39:19;12.30;99.90
25582;DHT22;13462;50.764;4.332;2023-08-31T05:41:45;12.30;99.90
25582;DHT22;13462;50.764;4.332;2023-08-31T05:44:10;12.30;99.90
25582;DHT22;13462;50.764;4.332;2023-08-31T05:46:36;12.30;99.90
25582;DHT22;13462;50.764;4.332;2023-08-31T05:49:03;12.30;99.90
25582;DHT22;13462;50.764;4.332;2023-08-31T05:51:29;12.40;99.90
25582;DHT22;13462;50.764;4.332;2023-08-31T05:53:55;12.40;99.90
25582;DHT22;13462;50.764;4.332;2023-08-31T05:56:20;12.40;99.90
25582;DHT22;13462;50.764;4.332;2023-08-31T05:58:46;12.40;99.90
25582;DHT22;13462;50.764;4.332;2023-08-31T06:01:12;12.50;99.90
25582;DHT22;13462;50.764;4.332;2023-08-31T06:03:38;12.60;99.90
25582;DHT22;13462;50.764;4.332;2023-08-31T06:06:04;13.00;99.90
25582;DHT22;13462;50.764;4.332;2023-08-31T06:08:30;13.50;99.90
25582;DHT22;13462;50.764;4.332;2023-08-31T06:10:55;14.00;99.90
25582;DHT22;13462;50.764;4.332;2023-08-31T06:13:21;14.60;99.90
25582;DHT22;13462;50.764;4.332;2023-08-31T06:15:47;15.10;99.90
25582;DHT22;13462;50.764;4.332;2023-08-31T06:18:13;15.50;99.90
25582;DHT22;13462;50.764;4.332;2023-08-31T06:20:38;15.80;99.90
25582;DHT22;13462;50.764;4.332;2023-08-31T06:23:04;16.00;99.90
25582;DHT22;13462;50.764;4.332;2023-08-31T06:25:30;16.20;99.90
25582;DHT22;13462;50.764;4.332;2023-08-31T06:27:56;16.30;99.90
25582;DHT22;13462;50.764;4.332;2023-08-31T06:30:21;16.70;99.90
25582;DHT22;13462;50.764;4.332;2023-08-31T06:32:47;17.10;99.90
25582;DHT22;13462;50.764;4.332;2023-08-31T06:35:14;17.40;99.90
25582;DHT22;13462;50.764;4.332;2023-08-31T06:37:41;17.60;99.90
25582;DHT22;13462;50.764;4.332;2023-08-31T06:40:08;17.40;99.90
25582;DHT22;13462;50.764;4.332;2023-08-31T06:42:35;17.00;99.90
25582;DHT22;13462;50.764;4.332;2023-08-31T06:45:02;16.40;99.90
25582;DHT22;13462;50.764;4.332;2023-08-31T06:47:28;15.80;99.90
25582;DHT22;13462;50.764;4.332;2023-08-31T06:49:53;15.50;99.90
25582;DHT22;13462;50.764;4.332;2023-08-31T06:52:19;15.50;99.90
25582;DHT22;13462;50.764;4.332;2023-08-31T06:54:45;15.40;99.90
25582;DHT22;13462;50.764;4.332;2023-08-31T06:57:10;15.30;99.90
25582;DHT22;13462;50.764;4.332;2023-08-31T06:59:36;15.40;99.90
25582;DHT22;13462;50.764;4.332;2023-08-31T07:02:01;15.40;99.90
25582;DHT22;13462;50.764;4.332;2023-08-31T07:04:27;15.40;99.90
25582;DHT22;13462;50.764;4.332;2023-08-31T07:06:53;15.40;99.90
25582;DHT22;13462;50.764;4.332;2023-08-31T07:09:19;15.50;99.90
25582;DHT22;13462;50.764;4.332;2023-08-31T07:11:44;15.50;99.90
25582;DHT22;13462;50.764;4.332;2023-08-31T07:14:10;15.60;99.90
25582;DHT22;13462;50.764;4.332;2023-08-31T07:16:35;15.60;99.90
25582;DHT22;13462;50.764;4.332;2023-08-31T07:19:01;15.20;99.90
25582;DHT22;13462;50.764;4.332;2023-08-31T07:21:28;15.20;99.90
25582;DHT22;13462;50.764;4.332;2023-08-31T07:23:53;15.30;99.90
25582;DHT22;13462;50.764;4.332;2023-08-31T07:26:20;15.40;99.90
25582;DHT22;13462;50.764;4.332;2023-08-31T07:28:46;15.50;99.90
25582;DHT22;13462;50.764;4.332;2023-08-31T07:31:12;15.50;99.90
25582;DHT22;13462;50.764;4.332;2023-08-31T07:33:38;15.60;99.90
25582;DHT22;13462;50.764;4.332;2023-08-31T07:36:04;15.80;99.90
25582;DHT22;13462;50.764;4.332;2023-08-31T07:38:31;15.90;99.90
25582;DHT22;13462;50.764;4.332;2023-08-31T07:40:57;16.00;99.90
25582;DHT22;13462;50.764;4.332;2023-08-31T07:43:23;16.00;99.90
25582;DHT22;13462;50.764;4.332;2023-08-31T07:45:49;15.90;99.90
25582;DHT22;13462;50.764;4.332;2023-08-31T07:48:15;16.40;99.90
25582;DHT22;13462;50.764;4.332;2023-08-31T07:50:41;17.20;99.90
25582;DHT22;13462;50.764;4.332;2023-08-31T07:53:08;18.40;99.90
25582;DHT22;13462;50.764;4.332;2023-08-31T07:55:33;18.60;99.90
25582;DHT22;13462;50.764;4.332;2023-08-31T07:58:01;19.30;99.90
25582;DHT22;13462;50.764;4.332;2023-08-31T08:00:26;20.70;99.90
25582;DHT22;13462;50.764;4.332;2023-08-31T08:02:52;21.60;99.90
25582;DHT22;13462;50.764;4.332;2023-08-31T08:05:18;22.40;99.90
25582;DHT22;13462;50.764;4.332;2023-08-31T08:07:43;23.00;99.90
25582;DHT22;13462;50.764;4.332;2023-08-31T08:10:11;22.50;99.90
25582;DHT22;13462;50.764;4.332;2023-08-31T08:12:41;23.10;99.90
25582;DHT22;13462;50.764;4.332;2023-08-31T08:15:10;23.80;99.90
25582;DHT22;13462;50.764;4.332;2023-08-31T08:17:36;23.90;99.90
25582;DHT22;13462;50.764;4.332;2023-08-31T08:20:02;24.70;99.90
25582;DHT22;13462;50.764;4.332;2023-08-31T08:22:28;24.40;99.90
25582;DHT22;13462;50.764;4.332;2023-08-31T08:24:54;25.00;99.90
25582;DHT22;13462;50.764;4.332;2023-08-31T08:27:20;25.00;99.90
25582;DHT22;13462;50.764;4.332;2023-08-31T08:29:46;25.30;99.90
25582;DHT22;13462;50.764;4.332;2023-08-31T08:32:12;25.10;99.90
25582;DHT22;13462;50.764;4.332;2023-08-31T08:34:38;25.70;99.90
25582;DHT22;13462;50.764;4.332;2023-08-31T08:37:03;26.30;99.60
25582;DHT22;13462;50.764;4.332;2023-08-31T08:39:30;25.80;99.10
25582;DHT22;13462;50.764;4.332;2023-08-31T08:41:58;25.70;99.50
25582;DHT22;13462;50.764;4.332;2023-08-31T08:44:25;25.80;98.80
25582;DHT22;13462;50.764;4.332;2023-08-31T08:46:52;25.50;99.40
25582;DHT22;13462;50.764;4.332;2023-08-31T08:49:18;26.60;99.50
25582;DHT22;13462;50.764;4.332;2023-08-31T08:51:47;26.70;98.00
25582;DHT22;13462;50.764;4.332;2023-08-31T08:54:13;26.60;97.20
25582;DHT22;13462;50.764;4.332;2023-08-31T08:56:39;26.50;97.50
25582;DHT22;13462;50.764;4.332;2023-08-31T08:59:05;27.10;96.90
25582;DHT22;13462;50.764;4.332;2023-08-31T09:01:35;26.70;96.30
25582;DHT22;13462;50.764;4.332;2023-08-31T09:04:01;25.90;97.40
25582;DHT22;13462;50.764;4.332;2023-08-31T09:06:28;25.50;98.40
25582;DHT22;13462;50.764;4.332;2023-08-31T09:08:56;25.40;99.20
25582;DHT22;13462;50.764;4.332;2023-08-31T09:11:22;26.30;97.80
25582;DHT22;13462;50.764;4.332;2023-08-31T09:13:49;26.30;97.20
25582;DHT22;13462;50.764;4.332;2023-08-31T09:16:29;26.50;98.60
25582;DHT22;13462;50.764;4.332;2023-08-31T09:18:59;26.30;97.60
25582;DHT22;13462;50.764;4.332;2023-08-31T09:21:37;26.20;97.70
25582;DHT22;13462;50.764;4.332;2023-08-31T09:24:06;25.70;98.70
25582;DHT22;13462;50.764;4.332;2023-08-31T09:26:39;25.00;98.50
25582;DHT22;13462;50.764;4.332;2023-08-31T09:29:09;24.90;99.40
25582;DHT22;13462;50.764;4.332;2023-08-31T09:31:35;25.10;98.80
25582;DHT22;13462;50.764;4.332;2023-08-31T09:34:01;25.00;99.50
25582;DHT22;13462;50.764;4.332;2023-08-31T09:36:28;26.10;97.90
25582;DHT22;13462;50.764;4.332;2023-08-31T09:38:57;27.10;98.00
25582;DHT22;13462;50.764;4.332;2023-08-31T09:41:24;27.20;96.40
25582;DHT22;13462;50.764;4.332;2023-08-31T09:43:49;28.60;96.70
25582;DHT22;13462;50.764;4.332;2023-08-31T09:46:15;28.40;94.60
25582;DHT22;13462;50.764;4.332;2023-08-31T09:48:42;28.60;95.60
25582;DHT22;13462;50.764;4.332;2023-08-31T09:51:10;29.40;93.40
25582;DHT22;13462;50.764;4.332;2023-08-31T09:53:37;28.50;93.10
25582;DHT22;13462;50.764;4.332;2023-08-31T09:56:05;28.40;92.60
25582;DHT22;13462;50.764;4.332;2023-08-31T09:58:31;27.40;93.60
25582;DHT22;13462;50.764;4.332;2023-08-31T10:00:58;26.50;94.70
25582;DHT22;13462;50.764;4.332;2023-08-31T10:03:26;26.30;96.40
25582;DHT22;13462;50.764;4.332;2023-08-31T10:05:52;27.60;94.50
25582;DHT22;13462;50.764;4.332;2023-08-31T10:08:20;27.30;94.40
25582;DHT22;13462;50.764;4.332;2023-08-31T10:10:46;26.00;96.00
25582;DHT22;13462;50.764;4.332;2023-08-31T10:13:12;25.10;97.60
25582;DHT22;13462;50.764;4.332;2023-08-31T10:15:39;24.60;99.80
25582;DHT22;13462;50.764;4.332;2023-08-31T10:18:06;24.00;99.90
25582;DHT22;13462;50.764;4.332;2023-08-31T10:20:32;24.70;99.90
25582;DHT22;13462;50.764;4.332;2023-08-31T10:25:25;24.20;99.90
25582;DHT22;13462;50.764;4.332;2023-08-31T10:28:24;23.40;99.90
25582;DHT22;13462;50.764;4.332;2023-08-31T10:31:20;22.60;99.90
25582;DHT22;13462;50.764;4.332;2023-08-31T10:34:04;22.00;99.90
25582;DHT22;13462;50.764;4.332;2023-08-31T10:36:40;21.60;99.90
25582;DHT22;13462;50.764;4.332;2023-08-31T10:39:15;21.10;99.90
25582;DHT22;13462;50.764;4.332;2023-08-31T10:41:41;21.80;99.90
25582;DHT22;13462;50.764;4.332;2023-08-31T10:44:27;22.80;99.90
25582;DHT22;13462;50.764;4.332;2023-08-31T10:46:59;23.00;99.90
25582;DHT22;13462;50.764;4.332;2023-08-31T10:49:25;22.70;99.90
25582;DHT22;13462;50.764;4.332;2023-08-31T10:52:00;22.40;99.90
25582;DHT22;13462;50.764;4.332;2023-08-31T10:54:40;21.80;99.90
25582;DHT22;13462;50.764;4.332;2023-08-31T10:57:06;21.70;99.90
25582;DHT22;13462;50.764;4.332;2023-08-31T11:00:01;22.00;99.90
25582;DHT22;13462;50.764;4.332;2023-08-31T11:05:18;24.00;99.90
25582;DHT22;13462;50.764;4.332;2023-08-31T11:07:44;24.70;99.60
25582;DHT22;13462;50.764;4.332;2023-08-31T11:10:21;24.40;99.30
25582;DHT22;13462;50.764;4.332;2023-08-31T11:12:52;23.70;99.20
25582;DHT22;13462;50.764;4.332;2023-08-31T11:15:20;22.80;99.90
25582;DHT22;13462;50.764;4.332;2023-08-31T11:17:46;22.90;99.90
25582;DHT22;13462;50.764;4.332;2023-08-31T11:20:20;22.70;99.90
25582;DHT22;13462;50.764;4.332;2023-08-31T11:22:47;22.60;99.90
25582;DHT22;13462;50.764;4.332;2023-08-31T11:25:16;22.60;99.90
25582;DHT22;13462;50.764;4.332;2023-08-31T11:27:42;23.00;99.90
25582;DHT22;13462;50.764;4.332;2023-08-31T11:30:17;23.00;99.90
25582;DHT22;13462;50.764;4.332;2023-08-31T11:32:47;22.50;99.90
25582;DHT22;13462;50.764;4.332;2023-08-31T11:35:15;22.20;99.90
25582;DHT22;13462;50.764;4.332;2023-08-31T11:37:43;22.00;99.90
25582;DHT22;13462;50.764;4.332;2023-08-31T11:40:09;21.50;99.90
25582;DHT22;13462;50.764;4.332;2023-08-31T11:42:35;21.30;99.90
25582;DHT22;13462;50.764;4.332;2023-08-31T11:45:01;21.40;99.90
25582;DHT22;13462;50.764;4.332;2023-08-31T11:47:31;21.90;99.90
25582;DHT22;13462;50.764;4.332;2023-08-31T11:49:57;22.20;99.90
25582;DHT22;13462;50.764;4.332;2023-08-31T11:52:22;22.50;99.90
25582;DHT22;13462;50.764;4.332;2023-08-31T11:54:52;22.90;99.90
25582;DHT22;13462;50.764;4.332;2023-08-31T11:57:19;23.00;99.90
25582;DHT22;13462;50.764;4.332;2023-08-31T11:59:50;23.20;99.90
25582;DHT22;13462;50.764;4.332;2023-08-31T12:02:19;23.30;99.90
25582;DHT22;13462;50.764;4.332;2023-08-31T12:04:45;22.80;99.90
25582;DHT22;13462;50.764;4.332;2023-08-31T12:07:12;22.40;99.90
25582;DHT22;13462;50.764;4.332;2023-08-31T12:09:41;22.00;99.90
25582;DHT22;13462;50.764;4.332;2023-08-31T12:12:07;21.60;99.90
25582;DHT22;13462;50.764;4.332;2023-08-31T12:14:36;21.30;99.90
25582;DHT22;13462;50.764;4.332;2023-08-31T12:17:05;21.30;99.90
25582;DHT22;13462;50.764;4.332;2023-08-31T12:19:32;21.20;99.90
25582;DHT22;13462;50.764;4.332;2023-08-31T12:21:58;20.90;99.90
25582;DHT22;13462;50.764;4.332;2023-08-31T12:24:24;20.90;99.90
25582;DHT22;13462;50.764;4.332;2023-08-31T12:26:50;20.80;99.90
25582;DHT22;13462;50.764;4.332;2023-08-31T12:29:16;20.80;99.90
25582;DHT22;13462;50.764;4.332;2023-08-31T12:31:42;20.50;99.90
25582;DHT22;13462;50.764;4.332;2023-08-31T12:34:09;20.30;99.90
25582;DHT22;13462;50.764;4.332;2023-08-31T12:36:35;20.30;99.90
25582;DHT22;13462;50.764;4.332;2023-08-31T12:39:07;20.30;99.90
25582;DHT22;13462;50.764;4.332;2023-08-31T12:41:35;20.20;99.90
25582;DHT22;13462;50.764;4.332;2023-08-31T12:44:02;20.30;99.90
25582;DHT22;13462;50.764;4.332;2023-08-31T12:46:29;20.40;99.90
25582;DHT22;13462;50.764;4.332;2023-08-31T12:48:54;20.50;99.90
25582;DHT22;13462;50.764;4.332;2023-08-31T12:51:20;20.40;99.90
25582;DHT22;13462;50.764;4.332;2023-08-31T12:53:45;20.40;99.90
25582;DHT22;13462;50.764;4.332;2023-08-31T12:56:12;20.40;99.90
25582;DHT22;13462;50.764;4.332;2023-08-31T12:58:38;20.40;99.90
25582;DHT22;13462;50.764;4.332;2023-08-31T13:01:04;20.20;99.90
25582;DHT22;13462;50.764;4.332;2023-08-31T13:03:30;20.20;99.90
25582;DHT22;13462;50.764;4.332;2023-08-31T13:05:55;20.20;99.90
25582;DHT22;13462;50.764;4.332;2023-08-31T13:08:21;20.20;99.90
25582;DHT22;13462;50.764;4.332;2023-08-31T13:10:53;20.10;99.90
25582;DHT22;13462;50.764;4.332;2023-08-31T13:13:20;20.40;99.90
25582;DHT22;13462;50.764;4.332;2023-08-31T13:15:46;20.90;99.90
25582;DHT22;13462;50.764;4.332;2023-08-31T13:18:12;21.20;99.90
25582;DHT22;13462;50.764;4.332;2023-08-31T13:20:38;21.50;99.90
25582;DHT22;13462;50.764;4.332;2023-08-31T13:23:04;21.80;99.90
25582;DHT22;13462;50.764;4.332;2023-08-31T13:25:30;22.00;99.90
25582;DHT22;13462;50.764;4.332;2023-08-31T13:27:56;21.90;99.90
25582;DHT22;13462;50.764;4.332;2023-08-31T13:30:22;21.90;99.90
25582;DHT22;13462;50.764;4.332;2023-08-31T13:32:48;21.60;99.90
25582;DHT22;13462;50.764;4.332;2023-08-31T13:35:13;21.50;99.90
25582;DHT22;13462;50.764;4.332;2023-08-31T13:37:39;21.50;99.90
25582;DHT22;13462;50.764;4.332;2023-08-31T13:40:05;21.40;99.90
25582;DHT22;13462;50.764;4.332;2023-08-31T13:42:34;21.40;99.90
25582;DHT22;13462;50.764;4.332;2023-08-31T13:45:06;21.30;99.90
25582;DHT22;13462;50.764;4.332;2023-08-31T13:47:33;21.20;99.90
25582;DHT22;13462;50.764;4.332;2023-08-31T13:49:58;21.50;99.90
25582;DHT22;13462;50.764;4.332;2023-08-31T13:52:24;21.70;99.90
25582;DHT22;13462;50.764;4.332;2023-08-31T13:54:50;21.60;99.90
25582;DHT22;13462;50.764;4.332;2023-08-31T13:57:15;21.80;99.90
25582;DHT22;13462;50.764;4.332;2023-08-31T13:59:43;21.80;99.90
25582;DHT22;13462;50.764;4.332;2023-08-31T14:02:09;21.90;99.90
25582;DHT22;13462;50.764;4.332;2023-08-31T14:04:35;21.80;99.90
25582;DHT22;13462;50.764;4.332;2023-08-31T14:07:00;21.30;99.90
25582;DHT22;13462;50.764;4.332;2023-08-31T14:09:27;21.00;99.90
25582;DHT22;13462;50.764;4.332;2023-08-31T14:11:53;20.90;99.90
25582;DHT22;13462;50.764;4.332;2023-08-31T14:14:20;20.70;99.90
25582;DHT22;13462;50.764;4.332;2023-08-31T14:16:47;20.80;99.90
25582;DHT22;13462;50.764;4.332;2023-08-31T14:19:12;20.50;99.90
25582;DHT22;13462;50.764;4.332;2023-08-31T14:21:38;20.50;99.90
25582;DHT22;13462;50.764;4.332;2023-08-31T14:24:04;20.40;99.90
25582;DHT22;13462;50.764;4.332;2023-08-31T14:26:29;20.30;99.90
25582;DHT22;13462;50.764;4.332;2023-08-31T14:28:55;20.20;99.90
25582;DHT22;13462;50.764;4.332;2023-08-31T14:31:21;20.20;99.90
25582;DHT22;13462;50.764;4.332;2023-08-31T14:33:47;20.20;99.90
25582;DHT22;13462;50.764;4.332;2023-08-31T14:36:15;20.10;99.90
25582;DHT22;13462;50.764;4.332;2023-08-31T14:38:41;20.20;99.90
25582;DHT22;13462;50.764;4.332;2023-08-31T14:41:06;20.20;99.90
25582;DHT22;13462;50.764;4.332;2023-08-31T14:43:35;20.10;99.90
25582;DHT22;13462;50.764;4.332;2023-08-31T14:46:01;20.10;99.90
25582;DHT22;13462;50.764;4.332;2023-08-31T14:48:27;20.00;99.90
25582;DHT22;13462;50.764;4.332;2023-08-31T14:50:54;20.00;99.90
25582;DHT22;13462;50.764;4.332;2023-08-31T14:53:19;20.00;99.90
25582;DHT22;13462;50.764;4.332;2023-08-31T14:55:49;19.80;99.90
25582;DHT22;13462;50.764;4.332;2023-08-31T14:58:15;19.60;99.90
25582;DHT22;13462;50.764;4.332;2023-08-31T15:00:40;19.70;99.90
25582;DHT22;13462;50.764;4.332;2023-08-31T15:03:06;19.70;99.90
25582;DHT22;13462;50.764;4.332;2023-08-31T15:05:32;19.60;99.90
25582;DHT22;13462;50.764;4.332;2023-08-31T15:07:57;19.40;99.90
25582;DHT22;13462;50.764;4.332;2023-08-31T15:10:23;19.20;99.90
25582;DHT22;13462;50.764;4.332;2023-08-31T15:12:48;19.00;99.90
25582;DHT22;13462;50.764;4.332;2023-08-31T15:15:16;19.10;99.90
25582;DHT22;13462;50.764;4.332;2023-08-31T15:17:42;19.10;99.90
25582;DHT22;13462;50.764;4.332;2023-08-31T15:20:08;18.90;99.90
25582;DHT22;13462;50.764;4.332;2023-08-31T15:22:34;19.00;99.90
25582;DHT22;13462;50.764;4.332;2023-08-31T15:25:00;18.90;99.90
25582;DHT22;13462;50.764;4.332;2023-08-31T15:27:25;19.20;99.90
25582;DHT22;13462;50.764;4.332;2023-08-31T15:29:51;19.30;99.90
25582;DHT22;13462;50.764;4.332;2023-08-31T15:32:17;19.30;99.90
25582;DHT22;13462;50.764;4.332;2023-08-31T15:34:45;19.30;99.90
25582;DHT22;13462;50.764;4.332;2023-08-31T15:37:10;19.30;99.90
25582;DHT22;13462;50.764;4.332;2023-08-31T15:39:37;19.40;99.90